logo
App data

10 Second Ninja X

10 SECOND NINJA X is a hardcore sidescroller. You're a ninja, there are robots, you've got ten seconds to destroy them all. Get three star ratings, climb leaderboards, discover secrets and stop Captain Greatbeard.
Store | Hub | SteamDB | Site
Developer: Four Circle Interactive Publisher: Curve Digital
Genre: Action, Indie
Languages: English, French, German, Spanish - Spain, Russian
Tags: Action (68), Indie (60), Platformer (42), Puzzle-Platformer (26), Difficult (21), Fast-Paced (15), Ninja (13), 2D (12), Singleplayer (7), Side Scroller (6), Puzzle (5)
Category: Single-player, Steam Achievements, Full controller support, Steam Trading Cards, Steam Leaderboards, Remote Play on TV
Release date: Jul 19, 2016
Price: $0.99 90%
Old userscore: 82% Owners: 200,000 .. 500,000
Followers: 1,928
Peak concurrent players yesterday: 21
YouTube stats: 219 views and 169 comments for top 50 videos uploaded last week, 17 new videos uploaded yesterday.
Playtime total: 00:54 (average) 01:20 (median)

Steam Spy is still in beta, so expect major bugs.

Owners data:

Access restricted.

This feature is only available to users with special access rights. Sorry.

If you want to proceed, you need to register or log in first and then back Steam Spy on Patreon. Look for Indie or Pro pledge.

Don't forget to use the same email as on Steam Spy!

Audience in 2 weeks:

Access restricted.

This feature is only available to users with special access rights. Sorry.

If you want to proceed, you need to register or log in first and then back Steam Spy on Patreon. Look for Indie or Pro pledge.

Don't forget to use the same email as on Steam Spy!

Peak daily concurrent players:

CCU data courtesy of SteamDB. Used with permission.

Hourly concurrent players:

Daily Twitch stats:

Hourly Twitch stats:

Followers over time

Access restricted.

This feature is only available to users with special access rights. Sorry.

If you want to proceed, you need to register or log in first and then back Steam Spy on Patreon. Look for Indie or Pro pledge.

Don't forget to use the same email as on Steam Spy!

Views for top 50 videos on YouTube for this game:

Games similar to this one:

# Game Release date
Price
Score rank
(Userscore / Metascore)
Owners
Players
Playtime (Median)
1 Godus At some point $14.99N/A (N/A)50,000 .. 100,0000%00:00 (00:00)
2 Party of Sin Dec 13, 2012 $2.99N/A (N/A)50,000 .. 100,0000%00:00 (00:00)
3 BIT.TRIP BEAT Nov 2, 2010 $3.99N/A (N/A)200,000 .. 500,0000%00:00 (00:00)
4 Home Jun 1, 2012 $4.99N/A (N/A/69%)200,000 .. 500,0000%00:00 (00:00)
5 Super Splatters Jun 26, 2013 N/AN/A (N/A/73%)50,000 .. 100,0000%00:00 (00:00)
6 Ultratron Mar 18, 2013 $4.99N/A (N/A)0 .. 20,0000%00:00 (00:00)
7 Ms. Splosion Man Apr 3, 2013 $2.49N/A (N/A)20,000 .. 50,0000%00:00 (00:00)
8 Cargo Commander Nov 1, 2012 $1.99N/A (N/A)100,000 .. 200,0000%00:00 (00:00)
9 SOL: Exodus Jan 25, 2012 $7.99N/A (N/A/57%)50,000 .. 100,0000%00:00 (00:00)
10 Puddle Nov 9, 2012 $7.99N/A (N/A)50,000 .. 100,0000%00:00 (00:00)
11 Titan Attacks! Feb 3, 2012 $4.99N/A (N/A)50,000 .. 100,0000%00:00 (00:00)
12 Retro/Grade Mar 20, 2013 $2.49N/A (N/A)50,000 .. 100,0000%00:00 (00:00)
13 Tales From Space: Mutant Blobs Attack Aug 15, 2012 $2.99N/A (N/A/83%)100,000 .. 200,0008.33%01:53 (00:37)
14 Papo & Yo Apr 18, 2013 $14.99N/A (N/A/70%)200,000 .. 500,0000%00:00 (00:00)
15 Unmechanical Aug 8, 2012 $9.99N/A (N/A/74%)100,000 .. 200,0000%00:00 (00:00)
16 Bad Hotel Oct 16, 2013 $4.99N/A (N/A)50,000 .. 100,0000%00:00 (00:00)
17 Sugar Cube: Bittersweet Factory Nov 7, 2012 $1.74N/A (N/A)20,000 .. 50,0000%00:00 (00:00)
18 Snake Pass Mar 28, 2017 $4.99N/A (N/A/71%)200,000 .. 500,0000%00:00 (00:00)
19 Joana's Life Sep 1, 2016 $2.99N/A (N/A)50,000 .. 100,0000%00:00 (00:00)
20 Call Of The Mighty Warriors Mar 1, 2019 $0.49N/A (N/A)0 .. 20,0000%00:00 (00:00)
21 Intensive Exposure Sep 6, 2016 $0.99N/A (N/A)0 .. 20,0000%00:00 (00:00)
22 Karma Miwa Aug 12, 2016 $0.99N/A (N/A)20,000 .. 50,0000%00:00 (00:00)
23 It Comes Around - A Kinetic Novel Sep 29, 2016 $2.99N/A (N/A)20,000 .. 50,0000%00:00 (00:00)
24 Super Duper Party Pooper Jun 6, 2016 $0.49N/A (N/A/40%)100,000 .. 200,0000%00:00 (00:00)
25 Starship Annihilator Sep 2, 2016 $0.49N/A (N/A)20,000 .. 50,0000%00:00 (00:00)
26 DashBored Jun 13, 2016 $4.99N/A (N/A)20,000 .. 50,0000%00:00 (00:00)
27 The Gleam: VR Escape the Room Oct 14, 2016 $3.99N/A (N/A)100,000 .. 200,0000%00:00 (00:00)
28 You Deserve Aug 19, 2016 $0.99N/A (N/A)20,000 .. 50,0000%00:00 (00:00)
29 mr.President Prologue Episode Sep 20, 2016 $0.49N/A (N/A)20,000 .. 50,0000%00:00 (00:00)
30 Dinosaur Forest May 17, 2017 $0.49N/A (N/A)50,000 .. 100,0000%00:00 (00:00)
31 BoomTown! Deluxe Oct 14, 2016 $1.99N/A (N/A)20,000 .. 50,0000%00:00 (00:00)
32 Wheels of Aurelia Sep 20, 2016 $0.99N/A (N/A/63%)20,000 .. 50,0000%00:00 (00:00)
33 Pixel Gladiator Sep 8, 2017 $0.74N/A (N/A)0 .. 20,0000%00:00 (00:00)
34 Showdown Adventure Sep 23, 2016 $2.99N/A (N/A)20,000 .. 50,0000%00:00 (00:00)
35 Miner Warfare Jun 11, 2015 $1.01N/A (N/A)0 .. 20,0000%00:00 (00:00)
36 TIMEframe Jul 7, 2015 $0.95N/A (N/A)50,000 .. 100,0000%00:00 (00:00)
37 Phoenix Force Nov 13, 2014 $0.49N/A (N/A)50,000 .. 100,0000%00:00 (00:00)
38 On A Roll 3D Feb 12, 2015 $2.99N/A (N/A)50,000 .. 100,0000%00:00 (00:00)
39 Marvin's Mittens Dec 17, 2014 $5.99N/A (N/A)0 .. 20,0000%00:00 (00:00)
40 Glorkian Warrior: The Trials Of Glork Mar 24, 2015 $1.59N/A (N/A)20,000 .. 50,0000%00:00 (00:00)
41 Ephemerid: A Musical Adventure Feb 3, 2015 $1.99N/A (N/A)20,000 .. 50,0000%00:00 (00:00)
42 It came from space and ate our brains Mar 19, 2015 $8.99N/A (N/A)200,000 .. 500,0000%00:00 (00:00)
43 Bloody Streets Mar 12, 2015 $1.99N/A (N/A)20,000 .. 50,0000%00:00 (00:00)
44 Starship Traveller Mar 11, 2015 $1.49N/A (N/A)0 .. 20,0000%00:00 (00:00)
45 Chronicles of a Dark Lord: Episode 1 Tides of Fate Complete Dec 19, 2014 N/AN/A (N/A)50,000 .. 100,0000%00:00 (00:00)
46 Beyond Sol Oct 13, 2015 $9.99N/A (N/A/83%)0 .. 20,0000%00:00 (00:00)
47 Four Sided Fantasy Aug 30, 2016 $0.99N/A (N/A)0 .. 20,0000%00:00 (00:00)
48 Copy Kitty Apr 19, 2018 $3.74N/A (N/A)0 .. 20,0000%00:00 (00:00)
49 Bermuda Mar 17, 2015 $2.99N/A (N/A)50,000 .. 100,0000%00:00 (00:00)
50 BlastZone 2 Feb 19, 2015 $2.49N/A (N/A)20,000 .. 50,0000%00:00 (00:00)
51 Ukrainian Ninja Dec 23, 2014 FreeN/A (N/A)20,000 .. 50,0000%00:00 (00:00)
52 GORN Jul 18, 2019 $9.99N/A (N/A/85%)200,000 .. 500,0000%00:00 (00:00)
53 Wayout Nov 4, 2016 $0.49N/A (N/A)50,000 .. 100,0000%00:00 (00:00)
54 Open Sorcery Feb 22, 2017 $3.99N/A (N/A)0 .. 20,0000%00:00 (00:00)
55 Zolg Dec 2, 2016 $0.49N/A (N/A)20,000 .. 50,0000%00:00 (00:00)
56 Monolith Jun 7, 2017 $3.99N/A (N/A/83%)100,000 .. 200,0000%00:00 (00:00)
57 99Vidas Dec 22, 2016 $1.29N/A (N/A/69%)50,000 .. 100,00025%00:33 (00:11)
58 Guns of Icarus Alliance Mar 31, 2017 $0.74N/A (N/A)0 .. 20,0000%00:00 (00:00)
59 Witch It Oct 22, 2020 $11.99N/A (N/A)200,000 .. 500,0000%00:00 (00:00)
60 The Archotek Project Apr 28, 2017 $0.99N/A (N/A)200,000 .. 500,0000%00:00 (00:00)
61 Introvert Quest Mar 15, 2017 $2.49N/A (N/A)100,000 .. 200,0003.85%00:33 (00:11)
62 Distant Space Dec 20, 2016 $0.49N/A (N/A)50,000 .. 100,0000%00:00 (00:00)
63 Child Phobia: Nightcoming Fears Dec 20, 2016 $1.99N/A (N/A)20,000 .. 50,0000%00:00 (00:00)
64 Mistwood Heroes Dec 30, 2016 $0.49N/A (N/A)20,000 .. 50,0000%00:00 (00:00)
65 Impossiball Aug 8, 2017 $0.49N/A (N/A)0 .. 20,0000%00:00 (00:00)
66 Luna Sky Oct 2, 2015 $12.99N/A (N/A)50,000 .. 100,0000%00:00 (00:00)
67 Centauri Sector Jun 23, 2015 $4.99N/A (N/A)20,000 .. 50,0000%00:00 (00:00)
68 BRAWL Aug 13, 2015 $2.99N/A (N/A)0 .. 20,0000%00:00 (00:00)
69 Beyond Eyes Aug 11, 2015 $2.99N/A (N/A/60%)100,000 .. 200,0000%00:00 (00:00)
70 AdvertCity Jun 5, 2015 $19.99N/A (N/A)0 .. 20,0000%00:00 (00:00)
71 Gryphon Knight Epic Aug 20, 2015 $12.99N/A (N/A/55%)20,000 .. 50,00011.11%04:29 (01:29)
72 Broken Bots Jun 8, 2016 $6.99N/A (N/A)0 .. 20,0000%00:00 (00:00)
73 Luckslinger Jul 16, 2015 $9.99N/A (N/A/76%)20,000 .. 50,0000%00:00 (00:00)
74 Vernon's Legacy Sep 23, 2016 $11.99N/A (N/A)0 .. 20,0000%00:00 (00:00)
75 Canabalt Apr 30, 2015 $1.19N/A (N/A)20,000 .. 50,0000%00:00 (00:00)
76 Polyball Dec 1, 2017 $14.99N/A (N/A)100,000 .. 200,0000%00:00 (00:00)
77 Hare In The Hat Apr 1, 2015 $0.69N/A (N/A)50,000 .. 100,0000%00:00 (00:00)
78 Season of 12 Colors Mar 14, 2016 $1.94N/A (N/A)20,000 .. 50,0000%00:00 (00:00)
79 Kiai Resonance Apr 23, 2015 $1.24N/A (N/A)20,000 .. 50,0000%00:00 (00:00)
80 Cosmophony Jul 9, 2015 $4.99N/A (N/A)0 .. 20,0000%00:00 (00:00)
81 Spellsworn Mar 13, 2018 FreeN/A (N/A)200,000 .. 500,0000%00:00 (00:00)
82 Gravity Ghost Jan 26, 2015 $14.99N/A (N/A/75%)20,000 .. 50,0000%00:00 (00:00)
83 Wake At some point $4.99N/A (N/A)0 .. 20,0000%00:00 (00:00)
84 Constant C Mar 7, 2014 $9.99N/A (N/A/60%)0 .. 20,0000%00:00 (00:00)
85 Zack Zero Apr 29, 2013 $2.99N/A (N/A)50,000 .. 100,0000%00:00 (00:00)
86 Solar Flux Oct 24, 2013 $9.99N/A (N/A)100,000 .. 200,0000%00:00 (00:00)
87 Element4l May 24, 2013 $8.99N/A (N/A/77%)50,000 .. 100,0000%00:00 (00:00)
88 Maia Nov 23, 2018 $24.99N/A (N/A)0 .. 20,0000%00:00 (00:00)
89 Intake Nov 5, 2013 $9.99N/A (N/A)20,000 .. 50,0000%00:00 (00:00)
90 FOTONICA Nov 6, 2014 $1.49N/A (N/A/71%)50,000 .. 100,00014.29%08:34 (02:51)
91 Poöf Nov 8, 2013 $6.99N/A (N/A)20,000 .. 50,0000%00:00 (00:00)
92 Gentlemen! Nov 5, 2013 $1.24N/A (N/A)20,000 .. 50,0000%00:00 (00:00)
93 The Novelist Dec 10, 2013 $0.99N/A (N/A/66%)100,000 .. 200,0008.33%01:59 (00:59)
94 Escape Goat 2 Mar 24, 2014 $4.99N/A (N/A/76%)50,000 .. 100,0000%00:00 (00:00)
95 Knytt Underground Oct 25, 2013 $1.39N/A (N/A)50,000 .. 100,0000%00:00 (00:00)
96 Signal Ops Apr 2, 2013 $1.49N/A (N/A/61%)20,000 .. 50,0000%00:00 (00:00)
97 Escape Goat Jun 14, 2012 $2.49N/A (N/A)20,000 .. 50,0000%00:00 (00:00)
98 Survivor Squad Nov 8, 2013 $0.59N/A (N/A)100,000 .. 200,0000%00:00 (00:00)
99 Moonbase 332 Sep 18, 2015 $4.99N/A (N/A)20,000 .. 50,0000%00:00 (00:00)
100 none Nov 4, 2015 N/AN/A (N/A)20,000 .. 50,0000%00:00 (00:00)
101 Pizza Express Jun 25, 2015 $0.69N/A (N/A)20,000 .. 50,00050%02:24 (01:12)
102 Super Trench Attack 2 Nov 6, 2015 $2N/A (N/A)20,000 .. 50,0000%00:00 (00:00)
103 The Adventures of Mr. Bobley Jul 1, 2015 $0.99N/A (N/A)100,000 .. 200,0000%00:00 (00:00)
104 A.I. Invasion Sep 30, 2015 $2.99N/A (N/A)0 .. 20,0000%00:00 (00:00)
105 Monument Jun 5, 2015 $0.49N/A (N/A)20,000 .. 50,0000%00:00 (00:00)
106 iZBOT Sep 1, 2015 $11.99N/A (N/A)20,000 .. 50,0000%00:00 (00:00)
107 Western Press Apr 21, 2016 $0.99N/A (N/A)20,000 .. 50,0000%00:00 (00:00)
108 Redemption: Eternal Quest Aug 28, 2015 $1.19N/A (N/A)100,000 .. 200,0000%00:00 (00:00)
109 Action Alien Jun 26, 2015 $1.79N/A (N/A)50,000 .. 100,0000%00:00 (00:00)
110 Void Invaders Aug 14, 2015 $0.5N/A (N/A)20,000 .. 50,0000%00:00 (00:00)
111 8Bit Fiesta - Party Game Sep 30, 2016 FreeN/A (N/A)20,000 .. 50,0000%00:00 (00:00)
112 Blaster Shooter GunGuy! Aug 10, 2015 $0.99N/A (N/A)50,000 .. 100,0000%00:00 (00:00)
113 Dead In Bermuda Aug 27, 2015 $3.74N/A (N/A)20,000 .. 50,0000%00:00 (00:00)
114 Shmadow Nov 3, 2015 $1.99N/A (N/A)20,000 .. 50,0000%00:00 (00:00)
115 Aviary Attorney Dec 21, 2015 $10.49N/A (N/A/77%)50,000 .. 100,0000%00:00 (00:00)
116 Jones On Fire Mar 27, 2015 $0.74N/A (N/A)50,000 .. 100,0000%00:00 (00:00)
117 Montague's Mount Nov 19, 2013 $1.99N/A (N/A/39%)20,000 .. 50,0000%00:00 (00:00)
118 10 Second Ninja Mar 5, 2014 $1.99N/A (N/A/72%)50,000 .. 100,0000%00:00 (00:00)
119 Ballpoint Universe - Infinite Dec 17, 2013 $3.99N/A (N/A)50,000 .. 100,0000%00:00 (00:00)
120 Labyrinthine Dreams May 26, 2015 $0.49N/A (N/A)20,000 .. 50,0000%00:00 (00:00)
121 Drifter Mar 4, 2014 $11.99N/A (N/A)0 .. 20,0000%00:00 (00:00)
122 T.E.C. 3001 Apr 11, 2014 N/AN/A (N/A)20,000 .. 50,0000%00:00 (00:00)
123 STARWHAL Sep 29, 2014 $11.99N/A (N/A)50,000 .. 100,0000%00:00 (00:00)
124 Munin Jun 10, 2014 $0.49N/A (N/A/68%)200,000 .. 500,0000%00:00 (00:00)
125 Full Bore May 6, 2014 $3.74N/A (N/A/72%)20,000 .. 50,0000%00:00 (00:00)
126 4PM Jul 9, 2014 $2.99N/A (N/A/41%)0 .. 20,0000%00:00 (00:00)
127 A-Men Jan 25, 2014 $1.99N/A (N/A)0 .. 20,0000%00:00 (00:00)
128 Rabbit Hole 3D: Steam Edition Apr 25, 2014 $2.99N/A (N/A)50,000 .. 100,0000%00:00 (00:00)
129 Imagine Me Mar 14, 2014 $2.99N/A (N/A)20,000 .. 50,0000%00:00 (00:00)
130 ReignMaker Apr 16, 2014 $14.99N/A (N/A)50,000 .. 100,0000%00:00 (00:00)
131 Procyon Feb 26, 2014 $3.99N/A (N/A)20,000 .. 50,0000%00:00 (00:00)
132 Actual Sunlight Apr 3, 2014 $4.99N/A (N/A/77%)50,000 .. 100,0000%00:00 (00:00)
133 Doodle Kingdom Jun 9, 2016 $3.14N/A (N/A)50,000 .. 100,0000%00:00 (00:00)
134 Perraw - FPS Clone War Alpha Jan 29, 2016 $0.49N/A (N/A)0 .. 20,0000%00:00 (00:00)
135 Dragon's Wake Dec 10, 2015 $3.99N/A (N/A)0 .. 20,0000%00:00 (00:00)
136 Morphine Oct 28, 2015 $0.74N/A (N/A)20,000 .. 50,0000%00:00 (00:00)
137 Kitchen Simulator 2015 Sep 2, 2015 $0.69N/A (N/A)50,000 .. 100,0000%00:00 (00:00)
138 Days Under Custody Nov 23, 2015 $4.99N/A (N/A)20,000 .. 50,00050%01:00 (00:30)
139 Press X to Not Die Oct 6, 2017 $0.74N/A (N/A)100,000 .. 200,0000%00:00 (00:00)
140 Heavy Gear Assault Feb 10, 2017 $39.99N/A (N/A)20,000 .. 50,0000%00:00 (00:00)
141 Jet Set Knights Apr 7, 2016 $3.39N/A (N/A)0 .. 20,0000%00:00 (00:00)
142 Cosmic Leap Mar 17, 2016 $0.49N/A (N/A)20,000 .. 50,0000%00:00 (00:00)
143 1,000 Heads Among the Trees Dec 11, 2015 $4.99N/A (N/A)100,000 .. 200,0000%00:00 (00:00)
144 Godus Wars Feb 3, 2016 $14.99N/A (N/A)50,000 .. 100,0000%00:00 (00:00)
145 Dream Factory Nov 2, 2015 $9.99N/A (N/A)20,000 .. 50,0000%00:00 (00:00)
146 Bell Ringer Mar 18, 2016 $6.99N/A (N/A)200,000 .. 500,0008.33%01:05 (00:21)
147 Fist Slash: Of Ultimate Fury Dec 10, 2015 $0.79N/A (N/A)0 .. 20,0000%00:00 (00:00)
148 Space Moth DX Jan 22, 2016 $4.99N/A (N/A)20,000 .. 50,0000%00:00 (00:00)
149 The Purring Quest Nov 12, 2015 $1.09N/A (N/A)50,000 .. 100,0000%00:00 (00:00)
150 Dreaming Sarah Mar 12, 2015 $1.19N/A (N/A)200,000 .. 500,0000%00:00 (00:00)
151 Volt Apr 14, 2014 $0.99N/A (N/A)100,000 .. 200,0000%00:00 (00:00)
152 Captain Forever Remix Jun 3, 2016 $9.99N/A (N/A)50,000 .. 100,0000%00:00 (00:00)
153 Slip Apr 28, 2014 $0.99N/A (N/A)20,000 .. 50,0000%00:00 (00:00)
154 Frederic: Resurrection of Music May 16, 2014 $0.5N/A (N/A)100,000 .. 200,0000%00:00 (00:00)
155 Vitrum Apr 22, 2014 $1.99N/A (N/A)0 .. 20,0000%00:00 (00:00)
156 Frederic: Evil Strikes Back May 23, 2014 $0.79N/A (N/A)50,000 .. 100,0000%00:00 (00:00)
157 Three Dead Zed Jul 7, 2014 $5.99N/A (N/A)50,000 .. 100,0000%00:00 (00:00)
158 Rhythm Destruction Jun 16, 2014 $4.99N/A (N/A)50,000 .. 100,0000%00:00 (00:00)
159 Uriel's Chasm Sep 12, 2014 $0.74N/A (N/A)200,000 .. 500,0005%01:18 (00:26)
160 Ballad of Solar Apr 18, 2013 $0.69N/A (N/A)0 .. 20,0000%00:00 (00:00)
161 Cosmochoria Apr 27, 2015 $9.99N/A (N/A)20,000 .. 50,0000%00:00 (00:00)
162 Boson X Sep 15, 2014 $1.49N/A (N/A)50,000 .. 100,0000%00:00 (00:00)
163 Arson and Plunder: Unleashed Sep 25, 2015 $0.99N/A (N/A)20,000 .. 50,0000%00:00 (00:00)
164 TRISTOY Jan 15, 2015 $1.39N/A (N/A/49%)20,000 .. 50,0000%00:00 (00:00)
165 TownCraft Feb 25, 2015 $9.99N/A (N/A)0 .. 20,00025%00:45 (00:15)
166 Fancy Skulls Jun 16, 2014 $3.05N/A (N/A)20,000 .. 50,00016.67%01:31 (00:30)
167 Star Drifter Jun 1, 2016 $0.49N/A (N/A)200,000 .. 500,0000%00:00 (00:00)
168 Wrath of Anna Apr 2, 2018 $19.99N/A (N/A)50,000 .. 100,0000%00:00 (00:00)
169 Empire of the Gods Jan 27, 2016 $0.99N/A (N/A)50,000 .. 100,0000%00:00 (00:00)
170 Dashy Square Apr 25, 2016 $2.99N/A (N/A)0 .. 20,0000%00:00 (00:00)
171 Mindless Running Feb 18, 2016 $0.49N/A (N/A)20,000 .. 50,0000%00:00 (00:00)
172 Moonstone Tavern - A Fantasy Tavern Sim! May 13, 2016 $7.99N/A (N/A)20,000 .. 50,0000%00:00 (00:00)
173 Mimpi Dreams Mar 22, 2016 FreeN/A (N/A)50,000 .. 100,0000%00:00 (00:00)
174 NORTH Apr 27, 2016 $0.49N/A (N/A)200,000 .. 500,0000%00:00 (00:00)
175 Bunker Punks May 28, 2018 $2.24N/A (N/A)0 .. 20,0000%00:00 (00:00)
176 New Retro Arcade: Neon Aug 1, 2016 $14.99N/A (N/A)0 .. 20,0000%00:00 (00:00)
177 Amigdala Mar 28, 2016 $5.99N/A (N/A)20,000 .. 50,0000%00:00 (00:00)
178 上帝之城 I:监狱帝国 [City of God I - Prison Empire] Jul 9, 2018 $18.99N/A (N/A)50,000 .. 100,00020%00:01 (00:00)
179 Cube Land Arena Mar 8, 2019 $0.49N/A (N/A)50,000 .. 100,0000%00:00 (00:00)
180 Scanner Sombre Apr 26, 2017 $1.49N/A (N/A/67%)100,000 .. 200,0000%00:00 (00:00)
181 Hero Quest: Tower Conflict Apr 13, 2016 $0.49N/A (N/A)100,000 .. 200,0000%00:00 (00:00)
182 ORCS May 20, 2016 $0.49N/A (N/A)20,000 .. 50,0000%00:00 (00:00)
183 CrazyCars3D Jun 14, 2016 $2.99N/A (N/A)50,000 .. 100,0000%00:00 (00:00)
184 Chariot Nov 12, 2014 $1.49N/A (N/A/76%)50,000 .. 100,0000%00:00 (00:00)
185 Curses 'N Chaos Aug 18, 2015 $9.99N/A (N/A)20,000 .. 50,0000%00:00 (00:00)
186 Ninja Pizza Girl Sep 30, 2015 $0.69N/A (N/A/82%)50,000 .. 100,0000%00:00 (00:00)
187 Back to Bed Aug 6, 2014 $0.59N/A (N/A)500,000 .. 1,000,0000%00:00 (00:00)
188 iO Dec 5, 2014 $2.49N/A (N/A)50,000 .. 100,0000%00:00 (00:00)
189 NEON STRUCT May 20, 2015 $1.79N/A (N/A/62%)50,000 .. 100,00014.29%00:47 (00:15)
190 Horizon Shift May 29, 2015 $0.99N/A (N/A)100,000 .. 200,0004.35%01:55 (00:38)
191 OTTTD Aug 6, 2014 $1.99N/A (N/A)50,000 .. 100,00012.5%01:10 (00:23)
192 Super Life of Pixel Oct 22, 2014 $9.99N/A (N/A)20,000 .. 50,0000%00:00 (00:00)
193 The Masterplan Jun 4, 2015 $19.99N/A (N/A/68%)100,000 .. 200,0008.33%01:36 (00:32)
194 Traverser Jul 9, 2015 $2.99N/A (N/A/61%)0 .. 20,0000%00:00 (00:00)
195 Amazing Princess Sarah Aug 18, 2014 $3.74N/A (N/A)0 .. 20,0000%00:00 (00:00)
196 The Deer God Feb 27, 2015 $14.99N/A (N/A/59%)20,000 .. 50,0000%00:00 (00:00)
197 Velocibox Sep 8, 2014 $4.99N/A (N/A)50,000 .. 100,0009.09%02:47 (00:55)
198 Pix the Cat Jan 29, 2015 $1.49N/A (N/A/77%)20,000 .. 50,0000%00:00 (00:00)
199 Squishy the Suicidal Pig Oct 23, 2014 $0.89N/A (N/A)200,000 .. 500,0003.13%302:37 (100:52)
200 Amphora Nov 12, 2014 $2.79N/A (N/A)0 .. 20,0000%00:00 (00:00)

Geography of active players over time, share:

Access restricted.

This feature is only available to users with special access rights. Sorry.

If you want to proceed, you need to register or log in first and then back Steam Spy on Patreon. Look for Indie or Pro pledge.

Don't forget to use the same email as on Steam Spy!

Tags over time:

Access restricted.

This feature is only available to users with special access rights. Sorry.

If you want to proceed, you need to register or log in first and then back Steam Spy on Patreon. Look for Indie or Pro pledge.

Don't forget to use the same email as on Steam Spy!

Owners of this game also own:

Access restricted.

This feature is only available to users with special access rights. Sorry.

If you want to proceed, you need to register or log in first and then back Steam Spy on Patreon. Look for Indie or Pro pledge.

Don't forget to use the same email as on Steam Spy!

Playtime distribution:

Access restricted.

This feature is only available to users with special access rights. Sorry.

If you want to proceed, you need to register or log in first and then back Steam Spy on Patreon. Look for Indie or Pro pledge.

Don't forget to use the same email as on Steam Spy!

Playtime (2 weeks):

Access restricted.

This feature is only available to users with special access rights. Sorry.

If you want to proceed, you need to register or log in first and then back Steam Spy on Patreon. Look for Indie or Pro pledge.

Don't forget to use the same email as on Steam Spy!

User reviews:

Login required.

Please register or log in to see this information.